Time;durP1;ratioP1;P1;durP2;ratioP2;P2;SDS_P1;SDS_P2;PMS_P1;PMS_P2;Temp;Humidity;BMP_temperature;BMP_pressure;BME280_temperature;BME280_humidity;BME280_pressure;Samples;Min_cycle;Max_cycle;Signal;HPM_P1;HPM_P2
2021/05/01 00:00:19;;;;;;;21.60;8.85;;;;;;;18.92;62.81;99682.13;5058760;28;20036;-74
2021/05/01 00:02:45;;;;;;;18.42;8.05;;;;;;;18.81;64.50;99672.91;5059169;28;20056;-75
2021/05/01 00:05:11;;;;;;;32.28;17.58;;;;;;;18.85;63.86;99667.94;5060101;28;20242;-69
2021/05/01 00:07:37;;;;;;;21.77;10.98;;;;;;;18.79;63.59;99672.31;5058845;28;20046;-75
2021/05/01 00:10:07;;;;;;;16.20;8.75;;;;;;;18.78;63.75;99661.78;5058379;28;20032;-74
2021/05/01 00:12:33;;;;;;;15.30;8.55;;;;;;;18.77;63.67;99657.47;5056534;28;20025;-75
2021/05/01 00:14:58;;;;;;;18.23;8.98;;;;;;;18.75;63.52;99655.00;5058842;28;20342;-75
2021/05/01 00:17:24;;;;;;;19.13;8.68;;;;;;;18.88;63.47;99667.50;5061418;28;20280;-69
2021/05/01 00:19:49;;;;;;;16.50;8.50;;;;;;;18.76;63.66;99674.59;5060715;28;20064;-75
2021/05/01 00:22:15;;;;;;;19.75;9.18;;;;;;;18.72;64.16;99684.09;5058689;28;21075;-70
2021/05/01 00:24:40;;;;;;;19.40;8.80;;;;;;;18.65;64.12;99676.06;5058231;28;20037;-69
2021/05/01 00:27:06;;;;;;;21.08;9.55;;;;;;;18.64;64.37;99678.97;5059209;28;20066;-72
2021/05/01 00:29:32;;;;;;;33.35;16.75;;;;;;;18.60;64.01;99686.59;5058809;28;20088;-73
2021/05/01 00:31:57;;;;;;;30.48;13.40;;;;;;;18.65;63.40;99688.66;5060517;28;20218;-73
2021/05/01 00:34:23;;;;;;;34.47;16.67;;;;;;;18.62;64.04;99679.19;5060840;28;20029;-73
2021/05/01 00:36:48;;;;;;;30.40;15.20;;;;;;;18.67;63.81;99673.19;5062826;28;20033;-72
2021/05/01 00:39:14;;;;;;;29.73;13.98;;;;;;;18.63;63.69;99675.47;5062245;28;20029;-73
2021/05/01 00:41:39;;;;;;;26.50;13.65;;;;;;;18.63;63.40;99671.97;5063455;28;20029;-67
2021/05/01 00:44:06;;;;;;;23.60;11.70;;;;;;;18.55;62.95;99666.84;5061829;28;20112;-72
2021/05/01 00:46:32;;;;;;;24.10;12.30;;;;;;;18.56;63.75;99668.47;5061264;28;20096;-66
2021/05/01 00:48:57;;;;;;;24.77;11.30;;;;;;;18.59;63.66;99673.41;5063575;28;20241;-67
2021/05/01 00:51:23;;;;;;;26.48;11.73;;;;;;;18.59;63.92;99662.69;5062011;28;20211;-67
2021/05/01 00:53:48;;;;;;;26.83;12.23;;;;;;;18.59;63.99;99665.34;5059636;28;20323;-66
2021/05/01 00:56:15;;;;;;;24.02;12.30;;;;;;;18.56;63.98;99661.25;5063027;28;20056;-66
2021/05/01 00:58:40;;;;;;;24.23;11.95;;;;;;;18.56;64.19;99661.25;5061880;28;20025;-67
2021/05/01 01:03:37;;;;;;;25.42;11.20;;;;;;;18.47;64.00;99662.53;5062641;28;20112;-72
2021/05/01 01:06:03;;;;;;;19.83;10.13;;;;;;;18.54;64.24;99675.91;5061713;28;20045;-71
2021/05/01 01:08:28;;;;;;;21.35;10.15;;;;;;;18.46;64.45;99660.91;5062080;28;20028;-72
2021/05/01 01:10:54;;;;;;;21.00;9.68;;;;;;;18.37;65.04;99660.31;5062426;28;20148;-67
2021/05/01 01:13:21;;;;;;;26.88;9.88;;;;;;;18.18;66.26;99677.34;5063047;28;20028;-69
2021/05/01 01:15:47;;;;;;;21.83;10.00;;;;;;;18.03;67.01;99679.44;5060946;28;20334;-74
2021/05/01 01:18:13;;;;;;;21.27;9.43;;;;;;;18.21;66.50;99686.81;5060801;28;20105;-67
2021/05/01 01:20:38;;;;;;;25.67;11.07;;;;;;;18.24;66.36;99678.34;5062566;28;20104;-67
2021/05/01 01:23:04;;;;;;;17.05;9.07;;;;;;;18.35;66.53;99680.34;5064146;28;20108;-72
2021/05/01 01:25:29;;;;;;;21.10;10.13;;;;;;;18.49;65.63;99682.75;5064027;28;20044;-66
2021/05/01 01:27:55;;;;;;;18.27;9.60;;;;;;;18.38;65.88;99694.16;5063053;28;20059;-72
2021/05/01 01:30:28;;;;;;;16.98;8.80;;;;;;;18.38;65.65;99680.75;5061116;28;20035;-72
2021/05/01 01:32:54;;;;;;;25.85;10.25;;;;;;;18.17;66.35;99675.69;5059466;28;20147;-67
2021/05/01 01:35:21;;;;;;;21.25;9.65;;;;;;;18.17;66.14;99673.84;5062579;28;20092;-67
2021/05/01 01:37:48;;;;;;;19.30;10.18;;;;;;;18.23;65.61;99657.94;5061126;28;20040;-67
2021/05/01 01:40:15;;;;;;;19.15;9.30;;;;;;;18.27;65.97;99676.06;5060876;28;20117;-67
2021/05/01 01:42:41;;;;;;;18.52;10.10;;;;;;;17.95;67.06;99675.16;5062134;28;20100;-67
2021/05/01 01:45:08;;;;;;;21.15;11.05;;;;;;;17.55;68.16;99671.69;5061418;28;20053;-67
2021/05/01 01:47:33;;;;;;;22.65;12.57;;;;;;;17.38;69.18;99671.31;5058913;28;20032;-67
2021/05/01 01:49:59;;;;;;;25.02;12.90;;;;;;;17.28;69.80;99670.09;5061752;28;20021;-69
2021/05/01 01:52:24;;;;;;;25.73;12.45;;;;;;;17.26;69.96;99664.94;5061637;28;20136;-72
2021/05/01 01:54:50;;;;;;;27.45;11.98;;;;;;;17.25;69.68;99652.59;5062723;28;20037;-71
2021/05/01 01:57:15;;;;;;;25.20;11.20;;;;;;;17.41;69.12;99662.03;5061988;28;20074;-73
2021/05/01 01:59:42;;;;;;;24.98;11.40;;;;;;;17.54;68.97;99652.13;5061068;28;20361;-68
2021/05/01 02:02:08;;;;;;;23.20;10.32;;;;;;;17.64;68.25;99657.06;5061784;28;20245;-72
2021/05/01 02:04:34;;;;;;;23.10;10.48;;;;;;;17.66;67.53;99652.34;5061356;28;20041;-72
2021/05/01 02:06:59;;;;;;;19.50;9.77;;;;;;;17.79;67.52;99667.59;5061689;28;20033;-68
2021/05/01 02:09:25;;;;;;;23.83;9.23;;;;;;;17.71;67.33;99662.47;5058904;28;20333;-65
2021/05/01 02:11:50;;;;;;;21.25;9.50;;;;;;;17.84;67.01;99663.25;5058216;28;20021;-72
2021/05/01 02:14:16;;;;;;;29.23;10.07;;;;;;;17.94;66.43;99673.50;5060717;28;20028;-72
2021/05/01 02:16:41;;;;;;;18.42;8.50;;;;;;;17.98;66.59;99658.66;5060736;28;20029;-72
2021/05/01 02:19:06;;;;;;;24.15;9.93;;;;;;;18.10;65.77;99656.13;5060284;28;20326;-72
2021/05/01 02:21:32;;;;;;;16.50;8.68;;;;;;;18.11;65.88;99657.78;5063951;28;20084;-69
2021/05/01 02:23:57;;;;;;;16.58;8.98;;;;;;;18.06;65.63;99649.56;5063698;28;20029;-72
2021/05/01 02:26:23;;;;;;;18.50;9.15;;;;;;;18.10;65.56;99651.59;5064199;28;20306;-72
2021/05/01 02:28:49;;;;;;;23.27;9.95;;;;;;;18.15;64.89;99659.00;5064293;28;20037;-67
2021/05/01 02:31:15;;;;;;;22.83;8.82;;;;;;;18.08;64.48;99672.44;5052722;28;20044;-72
2021/05/01 02:33:40;;;;;;;17.55;9.05;;;;;;;17.98;65.27;99661.34;5060667;28;20196;-72
2021/05/01 02:36:06;;;;;;;18.35;8.30;;;;;;;18.01;65.31;99660.91;5057975;28;20033;-67
2021/05/01 02:38:31;;;;;;;19.52;9.32;;;;;;;18.05;65.27;99670.16;5060582;28;20108;-69
2021/05/01 02:40:57;;;;;;;19.58;8.60;;;;;;;17.95;65.71;99661.75;5063668;28;20096;-71
2021/05/01 02:43:22;;;;;;;18.13;8.60;;;;;;;18.06;65.74;99669.13;5063629;28;20047;-75
2021/05/01 02:45:48;;;;;;;19.48;8.30;;;;;;;18.05;64.97;99672.03;5063581;28;20117;-74
2021/05/01 02:48:14;;;;;;;21.17;8.20;;;;;;;18.09;65.20;99676.75;5063666;28;20039;-69
2021/05/01 02:50:40;;;;;;;14.35;8.82;;;;;;;18.11;64.99;99687.25;5063770;28;20330;-70
2021/05/01 02:53:05;;;;;;;16.95;9.07;;;;;;;18.07;65.19;99699.44;5063352;28;20036;-75
2021/05/01 02:55:32;;;;;;;16.08;8.77;;;;;;;17.98;65.37;99700.69;5063599;28;20037;-74
2021/05/01 02:57:58;;;;;;;21.85;10.50;;;;;;;17.94;65.65;99699.47;5063402;28;20052;-74
2021/05/01 03:00:25;;;;;;;20.98;8.90;;;;;;;17.86;65.49;99701.34;5062783;28;20040;-74
2021/05/01 03:02:51;;;;;;;18.60;9.05;;;;;;;17.73;65.96;99711.28;5063459;28;20051;-69
2021/05/01 03:05:17;;;;;;;18.98;9.27;;;;;;;17.69;66.31;99708.19;5063094;28;20044;-69
2021/05/01 03:07:43;;;;;;;16.92;8.88;;;;;;;17.71;65.31;99697.28;5063308;28;20036;-74
2021/05/01 03:10:14;;;;;;;18.30;9.63;;;;;;;17.68;64.44;99694.97;5061007;28;20040;-74
2021/05/01 03:12:41;;;;;;;34.72;9.20;;;;;;;17.51;65.24;99689.22;5062894;28;20019;-69
2021/05/01 03:15:08;;;;;;;21.52;9.52;;;;;;;17.39;65.44;99691.69;5063166;28;20351;-69
2021/05/01 03:17:34;;;;;;;20.63;9.75;;;;;;;17.24;65.90;99675.03;5062958;28;20376;-74
2021/05/01 03:19:59;;;;;;;20.55;9.77;;;;;;;17.23;66.62;99679.56;5063063;28;20040;-70
2021/05/01 03:22:25;;;;;;;23.50;9.77;;;;;;;17.31;66.75;99683.88;5062166;28;20042;-76
2021/05/01 03:24:50;;;;;;;22.45;9.88;;;;;;;17.32;66.78;99687.38;5059901;28;20037;-71
2021/05/01 03:27:16;;;;;;;19.00;9.80;;;;;;;17.26;67.26;99689.03;5062104;28;20032;-75
2021/05/01 03:29:41;;;;;;;19.30;9.77;;;;;;;17.24;67.27;99696.44;5060714;28;20048;-69
2021/05/01 03:32:08;;;;;;;28.77;9.93;;;;;;;17.10;68.08;99700.97;5059384;28;20157;-75
2021/05/01 03:34:34;;;;;;;20.98;9.80;;;;;;;17.01;67.90;99686.16;5059053;28;20029;-72
2021/05/01 03:36:59;;;;;;;20.55;10.02;;;;;;;17.11;67.98;99699.13;5060368;28;20025;-69
2021/05/01 03:39:25;;;;;;;17.73;9.88;;;;;;;17.09;68.40;99682.44;5061610;28;20021;-75
2021/05/01 03:41:51;;;;;;;25.50;9.90;;;;;;;17.19;67.68;99702.41;5060675;28;20080;-70
2021/05/01 03:44:16;;;;;;;20.98;9.98;;;;;;;17.21;67.68;99702.19;5060150;28;20025;-69
2021/05/01 03:46:42;;;;;;;22.05;10.02;;;;;;;17.29;67.37;99696.63;5057577;28;20381;-74
2021/05/01 03:49:07;;;;;;;16.30;9.85;;;;;;;17.21;67.23;99695.00;5059303;28;20384;-75
2021/05/01 03:51:33;;;;;;;23.88;10.48;;;;;;;17.12;68.44;99698.91;5061524;28;20056;-74
2021/05/01 03:53:58;;;;;;;18.63;10.30;;;;;;;17.22;68.24;99707.34;5059961;28;20025;-74
2021/05/01 03:56:24;;;;;;;16.92;9.40;;;;;;;17.25;68.00;99711.47;5059775;28;20227;-74
2021/05/01 03:58:49;;;;;;;22.95;9.25;;;;;;;17.34;67.68;99712.91;5041267;28;20025;-74
2021/05/01 04:01:15;;;;;;;22.85;9.60;;;;;;;17.42;67.67;99703.84;5059845;28;20362;-69
2021/05/01 04:03:41;;;;;;;24.15;9.88;;;;;;;17.54;67.09;99708.34;5059734;28;20105;-69
2021/05/01 04:06:06;;;;;;;21.80;9.55;;;;;;;17.68;66.36;99706.50;5059647;28;20041;-76
2021/05/01 04:08:32;;;;;;;19.88;8.48;;;;;;;17.62;66.86;99714.53;5057851;28;20122;-76
2021/05/01 04:10:58;;;;;;;18.85;9.48;;;;;;;17.67;66.51;99714.75;5056698;28;20028;-69
2021/05/01 04:13:24;;;;;;;15.95;9.13;;;;;;;17.75;66.77;99719.91;5060065;28;20036;-74
2021/05/01 04:15:50;;;;;;;16.92;8.48;;;;;;;17.77;66.58;99707.16;5060213;28;20210;-69
2021/05/01 04:18:15;;;;;;;23.75;9.15;;;;;;;17.85;66.46;99709.59;5060766;28;20133;-69
2021/05/01 04:20:41;;;;;;;27.42;9.70;;;;;;;17.89;66.40;99715.34;5059268;28;20071;-70
2021/05/01 04:23:08;;;;;;;27.00;9.57;;;;;;;17.92;66.76;99710.41;5060459;28;20383;-74
2021/05/01 04:25:37;;;;;;;21.90;8.38;;;;;;;18.03;66.51;99720.47;5058046;28;20104;-69
2021/05/01 04:28:04;;;;;;;17.17;9.30;;;;;;;18.05;66.49;99704.19;5059569;28;20183;-69
2021/05/01 04:30:29;;;;;;;17.75;9.70;;;;;;;17.99;67.08;99710.38;5059059;28;20132;-74
2021/05/01 04:32:55;;;;;;;22.77;9.80;;;;;;;17.94;67.70;99718.22;5058028;28;20041;-69
2021/05/01 04:35:20;;;;;;;21.67;9.45;;;;;;;18.06;67.84;99725.41;5059985;28;20029;-74
2021/05/01 04:37:46;;;;;;;26.38;9.60;;;;;;;18.11;67.11;99720.22;5058742;28;20035;-70
2021/05/01 04:40:12;;;;;;;24.25;9.82;;;;;;;18.22;66.33;99726.78;5059820;28;20031;-69
2021/05/01 04:42:45;;;;;;;19.77;10.02;;;;;;;18.32;66.11;99737.06;5058374;28;20029;-74
2021/05/01 04:45:12;;;;;;;19.25;10.40;;;;;;;18.46;65.91;99736.78;5056146;28;20033;-74
2021/05/01 04:47:37;;;;;;;21.73;9.45;;;;;;;18.65;66.36;99731.56;5058906;28;20063;-69
2021/05/01 04:50:03;;;;;;;21.48;9.50;;;;;;;18.69;65.16;99732.78;5057624;28;20037;-71
2021/05/01 04:52:28;;;;;;;16.10;9.45;;;;;;;18.78;65.66;99736.91;5058402;28;20349;-70
2021/05/01 04:54:54;;;;;;;22.67;9.35;;;;;;;18.93;65.14;99736.59;5059665;28;20108;-74
2021/05/01 04:57:19;;;;;;;24.15;9.77;;;;;;;19.17;64.29;99740.34;5057994;28;20020;-74
2021/05/01 04:59:45;;;;;;;23.67;9.30;;;;;;;19.30;64.24;99730.34;5056112;28;20235;-74
2021/05/01 05:02:10;;;;;;;18.63;9.32;;;;;;;19.27;63.14;99717.34;5057622;28;20029;-74
2021/05/01 05:04:35;;;;;;;20.38;9.43;;;;;;;19.33;63.00;99719.16;5059190;28;20041;-69
2021/05/01 05:07:01;;;;;;;17.85;9.07;;;;;;;19.63;62.84;99716.66;5060006;28;20031;-70
2021/05/01 05:09:26;;;;;;;17.48;8.05;;;;;;;19.38;62.64;99718.50;5059299;28;20043;-74
2021/05/01 05:11:52;;;;;;;19.50;8.50;;;;;;;19.35;62.82;99711.72;5057974;28;20074;-74
2021/05/01 05:14:17;;;;;;;14.88;8.13;;;;;;;19.70;62.01;99716.59;5058055;28;20082;-72
2021/05/01 05:16:43;;;;;;;15.38;7.95;;;;;;;19.91;61.99;99720.72;5058935;28;20025;-67
2021/05/01 05:19:08;;;;;;;15.07;7.03;;;;;;;20.05;62.10;99732.97;5057665;28;20051;-67
2021/05/01 05:21:37;;;;;;;19.52;7.70;;;;;;;20.13;60.73;99742.63;5058296;28;20054;-72
2021/05/01 05:24:04;;;;;;;15.57;7.05;;;;;;;20.11;61.21;99750.09;5062920;28;20040;-67
2021/05/01 05:26:30;;;;;;;18.02;7.30;;;;;;;20.23;60.41;99741.03;5062082;28;20039;-72
2021/05/01 05:28:56;;;;;;;15.93;7.63;;;;;;;20.48;60.30;99737.47;5059255;28;20282;-67
2021/05/01 05:31:21;;;;;;;12.50;6.88;;;;;;;20.55;61.00;99732.81;5062312;28;20032;-72
2021/05/01 05:33:47;;;;;;;21.55;7.20;;;;;;;20.63;59.04;99732.50;5062708;28;20254;-74
2021/05/01 05:36:12;;;;;;;14.50;7.05;;;;;;;20.71;59.57;99737.56;5063422;28;20222;-74
2021/05/01 05:38:37;;;;;;;17.20;7.60;;;;;;;20.85;59.04;99736.38;5061741;28;20361;-69
2021/05/01 05:41:03;;;;;;;16.73;7.68;;;;;;;20.60;60.60;99736.47;5063252;28;20290;-74
2021/05/01 05:43:31;;;;;;;12.25;6.97;;;;;;;20.51;61.05;99745.91;5061374;28;20021;-69
2021/05/01 05:45:57;;;;;;;17.35;7.10;;;;;;;20.65;60.34;99747.38;5061080;28;20068;-69
2021/05/01 05:48:22;;;;;;;15.55;7.78;;;;;;;20.73;59.82;99743.53;5062859;28;20180;-74
2021/05/01 05:50:47;;;;;;;16.60;7.78;;;;;;;20.80;59.90;99746.13;5063612;28;20074;-70
2021/05/01 05:53:13;;;;;;;15.18;7.45;;;;;;;20.75;59.93;99757.59;5064099;28;20086;-69
2021/05/01 05:55:38;;;;;;;13.68;7.60;;;;;;;20.68;60.09;99763.06;5062203;28;20033;-69
2021/05/01 05:58:04;;;;;;;17.67;7.57;;;;;;;20.93;59.80;99756.75;5060920;28;20037;-69
2021/05/01 06:00:29;;;;;;;19.45;7.00;;;;;;;21.37;57.93;99741.19;5061273;28;20037;-70
2021/05/01 06:03:00;;;;;;;18.45;7.07;;;;;;;22.11;55.46;99758.59;5064086;28;20033;-70
2021/05/01 06:05:28;;;;;;;17.50;6.35;;;;;;;22.75;53.79;99738.56;5062870;28;20044;-69
2021/05/01 06:08:05;;;;;;;16.42;6.35;;;;;;;23.12;52.00;99714.72;5061539;28;20576;-70
2021/05/01 06:10:31;;;;;;;18.55;6.57;;;;;;;23.24;51.48;99720.88;5061480;28;20031;-70
2021/05/01 06:12:59;;;;;;;19.75;6.70;;;;;;;23.55;51.05;99734.88;5061409;28;20032;-69
2021/05/01 06:15:25;;;;;;;14.13;6.32;;;;;;;23.87;50.86;99756.72;5061394;28;20275;-76
2021/05/01 06:17:53;;;;;;;12.80;6.68;;;;;;;24.01;50.26;99751.81;5062374;28;20037;-71
2021/05/01 06:20:19;;;;;;;23.80;7.15;;;;;;;24.24;49.17;99748.88;5063306;28;20032;-70
2021/05/01 06:22:49;;;;;;;16.63;6.60;;;;;;;24.36;49.33;99743.34;5061356;28;20100;-70
2021/05/01 06:25:14;;;;;;;16.50;6.57;;;;;;;24.67;48.65;99748.06;5060702;28;20369;-74
2021/05/01 06:27:40;;;;;;;13.77;6.25;;;;;;;25.07;48.00;99752.31;5061042;28;20033;-75
2021/05/01 06:30:08;;;;;;;15.98;7.00;;;;;;;25.14;46.95;99720.41;5061202;28;20052;-75
2021/05/01 06:32:33;;;;;;;21.25;6.85;;;;;;;25.75;45.63;99754.25;5063187;28;20033;-69
2021/05/01 06:35:00;;;;;;;13.90;6.30;;;;;;;26.13;44.56;99756.94;5061666;28;20047;-75
2021/05/01 06:37:27;;;;;;;18.20;6.60;;;;;;;26.40;44.05;99754.91;5060434;28;20028;-75
2021/05/01 06:39:56;;;;;;;15.25;6.05;;;;;;;26.24;44.24;99751.28;5059426;28;20037;-72
2021/05/01 06:42:29;;;;;;;16.35;5.82;;;;;;;26.17;43.50;99734.44;5062765;28;20470;-68
2021/05/01 06:45:02;;;;;;;19.80;6.85;;;;;;;25.85;44.79;99745.34;5063140;28;20036;-72
2021/05/01 06:47:30;;;;;;;17.88;6.60;;;;;;;26.07;44.39;99740.63;5064027;28;20253;-67
2021/05/01 06:50:09;;;;;;;15.23;6.57;;;;;;;26.27;43.83;99739.91;5063181;28;20230;-67
2021/05/01 06:52:40;;;;;;;17.67;6.22;;;;;;;25.42;45.89;99713.84;5050403;28;20100;-67
2021/05/01 06:55:07;;;;;;;19.98;6.53;;;;;;;25.89;45.84;99741.03;5043529;28;20075;-67
2021/05/01 06:57:37;;;;;;;15.10;6.28;;;;;;;26.09;45.26;99740.34;5055898;28;20248;-67
2021/05/01 07:00:06;;;;;;;17.70;5.75;;;;;;;25.89;44.81;99732.09;5061877;28;20357;-69
2021/05/01 07:02:32;;;;;;;15.73;5.90;;;;;;;25.87;44.62;99723.38;5060307;28;20322;-69
2021/05/01 07:04:59;;;;;;;13.93;5.63;;;;;;;26.34;44.42;99732.34;5060048;28;20037;-73
2021/05/01 07:07:27;;;;;;;15.05;5.20;;;;;;;26.45;44.12;99732.41;5059593;28;20290;-72
2021/05/01 07:09:53;;;;;;;21.75;5.78;;;;;;;26.47;43.92;99727.50;5062707;28;20060;-68
2021/05/01 07:12:20;;;;;;;18.55;5.55;;;;;;;26.84;42.89;99721.91;5061049;28;20036;-68
2021/05/01 07:14:46;;;;;;;16.40;5.85;;;;;;;27.16;42.49;99713.56;5059937;28;20036;-67
2021/05/01 07:17:13;;;;;;;18.92;5.78;;;;;;;27.33;41.50;99712.19;5059229;28;20040;-72
2021/05/01 07:19:39;;;;;;;13.57;5.60;;;;;;;27.29;41.10;99716.56;5057552;28;20028;-67
2021/05/01 07:22:05;;;;;;;18.20;5.30;;;;;;;27.43;40.89;99716.81;5059161;28;20039;-72
2021/05/01 07:24:30;;;;;;;20.27;6.25;;;;;;;27.47;41.11;99709.75;5057569;28;20048;-73
2021/05/01 07:26:57;;;;;;;17.85;6.15;;;;;;;27.35;41.20;99714.66;5060846;28;20033;-73
2021/05/01 07:29:52;;;;;;;19.40;5.80;;;;;;;27.74;40.20;99717.63;5069884;28;20047;-69
2021/05/01 07:32:18;;;;;;;17.92;6.35;;;;;;;27.79;41.71;99714.88;5058565;28;20342;-72
2021/05/01 07:34:50;;;;;;;15.05;6.43;;;;;;;27.87;42.50;99706.16;5060553;28;20041;-72
2021/05/01 07:37:21;;;;;;;16.48;6.57;;;;;;;27.77;42.07;99710.81;5061646;28;20086;-72
2021/05/01 07:39:52;;;;;;;18.25;5.63;;;;;;;27.67;41.68;99706.19;5059238;28;20035;-72
2021/05/01 07:42:20;;;;;;;16.85;6.20;;;;;;;27.38;41.70;99686.09;5060708;28;20047;-73
2021/05/01 07:44:46;;;;;;;15.50;5.85;;;;;;;27.87;40.82;99702.63;5059158;28;20032;-75
2021/05/01 07:47:16;;;;;;;17.90;5.53;;;;;;;27.98;40.43;99699.59;5058942;28;20029;-69
2021/05/01 07:49:41;;;;;;;21.65;6.10;;;;;;;27.76;40.92;99707.28;5056854;28;20222;-72
2021/05/01 07:52:07;;;;;;;14.38;4.72;;;;;;;27.78;39.88;99704.28;5059398;28;20031;-68
2021/05/01 07:54:38;;;;;;;8.93;4.43;;;;;;;27.94;39.09;99705.84;5059288;28;20025;-68
2021/05/01 07:57:04;;;;;;;15.77;4.40;;;;;;;27.94;38.39;99703.13;5056265;28;20258;-73
2021/05/01 07:59:30;;;;;;;15.50;5.22;;;;;;;28.30;37.25;99709.31;5060261;28;20033;-68
2021/05/01 08:01:55;;;;;;;19.52;6.10;;;;;;;28.60;37.62;99694.72;5060628;28;20044;-68
2021/05/01 08:04:21;;;;;;;14.10;5.35;;;;;;;29.05;38.06;99701.78;5060966;28;20045;-72
2021/05/01 08:06:46;;;;;;;9.77;5.07;;;;;;;28.83;37.47;99698.66;5058979;28;20345;-72
2021/05/01 08:09:12;;;;;;;16.80;4.93;;;;;;;28.48;38.93;99708.69;5058831;28;20037;-72
2021/05/01 08:11:37;;;;;;;13.25;4.38;;;;;;;28.06;39.05;99706.34;5058716;28;20035;-68
2021/05/01 08:14:03;;;;;;;15.95;5.13;;;;;;;28.53;38.59;99708.66;5060443;28;20036;-68
2021/05/01 08:16:28;;;;;;;14.18;5.35;;;;;;;28.45;39.91;99711.97;5059265;28;20052;-72
2021/05/01 08:18:54;;;;;;;13.52;4.63;;;;;;;28.46;39.55;99712.78;5059485;28;20041;-73
2021/05/01 08:21:20;;;;;;;22.38;5.25;;;;;;;27.99;39.10;99709.38;5058314;28;20100;-68
2021/05/01 08:23:46;;;;;;;11.27;4.82;;;;;;;27.77;40.39;99717.06;5058387;28;20047;-68
2021/05/01 08:26:12;;;;;;;15.38;4.95;;;;;;;27.63;39.84;99707.84;5059838;28;20032;-68
2021/05/01 08:28:37;;;;;;;18.60;5.32;;;;;;;27.65;41.04;99694.78;5058274;28;20219;-68
2021/05/01 08:31:03;;;;;;;21.13;5.95;;;;;;;27.97;40.61;99688.97;5060739;28;20033;-74
2021/05/01 08:33:28;;;;;;;12.05;5.03;;;;;;;27.80;41.51;99707.53;5061300;28;20039;-73
2021/05/01 08:35:54;;;;;;;14.13;4.72;;;;;;;28.17;40.10;99709.88;5061115;28;20025;-68
2021/05/01 08:38:22;;;;;;;16.45;4.40;;;;;;;28.35;38.62;99717.47;5058043;28;20052;-73
2021/05/01 08:40:48;;;;;;;14.07;4.50;;;;;;;28.66;38.24;99711.84;5055790;28;20041;-73
2021/05/01 08:43:14;;;;;;;17.20;4.43;;;;;;;28.77;36.50;99699.78;5058624;28;20024;-68
2021/05/01 08:45:41;;;;;;;7.60;3.80;;;;;;;28.55;37.17;99692.03;5058454;28;20079;-70
2021/05/01 08:48:07;;;;;;;14.32;5.18;;;;;;;28.51;38.73;99702.66;5058318;28;20199;-68
2021/05/01 08:50:49;;;;;;;15.52;4.40;;;;;;;28.39;36.93;99702.19;5058195;28;20051;-68
2021/05/01 08:53:14;;;;;;;13.80;5.07;;;;;;;28.31;38.05;99702.78;5058936;28;20036;-75
2021/05/01 08:55:40;;;;;;;15.02;4.95;;;;;;;28.54;37.50;99698.56;5056087;28;20029;-71
2021/05/01 08:58:08;;;;;;;14.75;4.65;;;;;;;29.01;36.49;99691.75;5062351;28;20019;-76
2021/05/01 09:00:36;;;;;;;13.77;4.65;;;;;;;29.32;36.38;99695.06;5062315;28;20049;-76
2021/05/01 09:03:06;;;;;;;17.02;4.80;;;;;;;29.55;36.47;99676.03;5062221;28;20025;-71
2021/05/01 09:05:35;;;;;;;11.25;4.50;;;;;;;29.73;36.65;99685.38;5062077;28;20078;-71
2021/05/01 09:08:06;;;;;;;15.65;4.38;;;;;;;29.61;35.85;99676.78;5063965;28;20094;-73
2021/05/01 09:10:38;;;;;;;15.07;4.70;;;;;;;29.61;36.80;99674.06;5062801;28;20032;-73
2021/05/01 09:13:15;;;;;;;16.48;4.68;;;;;;;29.47;35.99;99662.22;5062388;28;20067;-73
2021/05/01 09:15:42;;;;;;;15.82;4.97;;;;;;;29.41;36.35;99663.31;5064110;28;20327;-73
2021/05/01 09:18:08;;;;;;;13.48;4.45;;;;;;;29.13;36.62;99670.38;5060142;28;20016;-73
2021/05/01 09:20:34;;;;;;;14.20;5.32;;;;;;;29.16;37.32;99657.03;5064900;28;20037;-72
2021/05/01 09:23:03;;;;;;;14.18;5.00;;;;;;;29.21;36.23;99664.34;5065594;28;20040;-73
2021/05/01 09:25:31;;;;;;;11.60;3.97;;;;;;;29.48;35.89;99658.38;5064849;28;20055;-69
2021/05/01 09:28:13;;;;;;;15.85;4.80;;;;;;;29.73;35.41;99658.09;5065376;28;20032;-73
2021/05/01 09:30:41;;;;;;;10.88;4.25;;;;;;;29.90;35.27;99665.81;5064815;28;20079;-68
2021/05/01 09:33:28;;;;;;;17.98;5.13;;;;;;;29.96;34.83;99651.00;5065569;28;20243;-73
2021/05/01 09:36:01;;;;;;;15.45;4.45;;;;;;;30.05;34.88;99654.75;5064690;28;20041;-73
2021/05/01 09:38:46;;;;;;;15.40;4.75;;;;;;;29.77;36.04;99655.59;5065104;28;20028;-73
2021/05/01 09:41:15;;;;;;;13.77;4.40;;;;;;;29.74;35.10;99658.91;5064856;28;20040;-68
2021/05/01 09:44:05;;;;;;;18.83;4.78;;;;;;;29.24;35.77;99650.94;5065422;28;20135;-72
2021/05/01 09:46:36;;;;;;;14.80;4.63;;;;;;;29.10;36.16;99647.22;5056494;28;20199;-73
2021/05/01 09:49:03;;;;;;;13.90;4.25;;;;;;;28.96;35.52;99640.81;5064781;28;20041;-72
2021/05/01 09:51:53;;;;;;;10.85;4.20;;;;;;;29.18;35.93;99649.38;5064239;28;20036;-69
2021/05/01 09:54:35;;;;;;;14.73;4.53;;;;;;;29.33;35.46;99648.41;5064363;28;20037;-69
2021/05/01 09:57:04;;;;;;;13.88;4.47;;;;;;;29.19;35.90;99642.00;5064505;28;20045;-73
2021/05/01 09:59:36;;;;;;;15.57;4.45;;;;;;;29.22;35.47;99649.59;5064519;28;20036;-70
2021/05/01 10:02:01;;;;;;;15.15;5.13;;;;;;;29.37;35.05;99654.09;5064469;28;20044;-70
2021/05/01 10:04:28;;;;;;;18.63;4.60;;;;;;;29.48;34.91;99653.72;5061576;28;20040;-74
2021/05/01 10:06:56;;;;;;;11.40;3.60;;;;;;;29.48;36.27;99651.00;5062684;28;20349;-71
2021/05/01 10:09:24;;;;;;;13.63;4.07;;;;;;;29.59;35.15;99642.72;5059148;28;20239;-71
2021/05/01 10:12:02;;;;;;;11.27;4.43;;;;;;;29.75;35.08;99646.91;5057529;28;20029;-75
2021/05/01 10:14:47;;;;;;;14.45;5.00;;;;;;;29.57;36.64;99642.19;5060697;28;20032;-73
2021/05/01 10:17:22;;;;;;;16.75;4.60;;;;;;;29.41;35.87;99634.13;5061139;28;20029;-68
2021/05/01 10:19:55;;;;;;;15.35;4.50;;;;;;;29.42;36.58;99635.75;5060198;28;20072;-68
2021/05/01 10:22:28;;;;;;;11.63;4.20;;;;;;;29.40;35.82;99634.44;5058567;28;20223;-71
2021/05/01 10:24:55;;;;;;;15.20;4.22;;;;;;;29.53;35.37;99629.13;5058223;28;20258;-76
2021/05/01 10:27:21;;;;;;;11.00;4.18;;;;;;;29.63;35.74;99619.19;5061429;28;20318;-75
2021/05/01 10:30:11;;;;;;;11.95;4.47;;;;;;;29.93;35.33;99623.47;5070681;28;20104;-71
2021/05/01 10:32:47;;;;;;;15.85;4.00;;;;;;;30.13;35.39;99621.31;5060574;28;20199;-71
2021/05/01 10:35:13;;;;;;;23.17;4.72;;;;;;;30.27;34.45;99615.16;5057741;28;20215;-76
2021/05/01 10:37:47;;;;;;;15.18;4.13;;;;;;;30.22;33.89;99618.78;5061489;28;20056;-71
2021/05/01 10:40:12;;;;;;;18.80;5.05;;;;;;;30.43;33.88;99617.38;5060703;28;20028;-76
2021/05/01 10:42:38;;;;;;;14.57;4.07;;;;;;;30.24;34.47;99613.03;5064073;28;20035;-76
2021/05/01 10:45:04;;;;;;;12.98;4.05;;;;;;;30.18;34.05;99615.00;5062354;28;20331;-77
2021/05/01 10:47:29;;;;;;;17.58;4.15;;;;;;;30.09;32.97;99612.09;5071673;28;20247;-76
2021/05/01 10:49:57;;;;;;;14.57;4.25;;;;;;;29.91;34.58;99618.31;5050276;28;20068;-71
2021/05/01 10:52:23;;;;;;;14.82;3.60;;;;;;;29.91;33.37;99606.56;5059159;28;20020;-71
2021/05/01 10:55:06;;;;;;;19.02;5.53;;;;;;;30.22;34.01;99612.50;5060520;28;20040;-75
2021/05/01 10:57:35;;;;;;;15.82;4.00;;;;;;;30.14;35.30;99611.22;5060469;28;20041;-71
2021/05/01 11:00:08;;;;;;;17.33;4.93;;;;;;;30.10;35.90;99600.06;5059513;28;20039;-71
2021/05/01 11:02:40;;;;;;;13.50;4.53;;;;;;;30.05;36.65;99594.69;5059861;28;20036;-76
2021/05/01 11:05:09;;;;;;;14.93;4.13;;;;;;;30.09;37.00;99592.97;5060287;28;20235;-71
2021/05/01 11:07:50;;;;;;;13.23;4.00;;;;;;;30.21;36.14;99595.31;5060820;28;20291;-71
2021/05/01 11:10:16;;;;;;;17.52;4.45;;;;;;;30.31;35.59;99591.59;5059958;28;20028;-76
2021/05/01 11:12:52;;;;;;;20.63;4.63;;;;;;;30.10;35.29;99591.06;5060880;28;20187;-76
2021/05/01 11:15:20;;;;;;;12.23;4.68;;;;;;;30.27;33.63;99583.19;5059656;28;20045;-76
2021/05/01 11:18:04;;;;;;;20.65;4.65;;;;;;;30.29;33.44;99591.91;5059729;28;20025;-75
2021/05/01 11:20:30;;;;;;;18.98;4.30;;;;;;;30.20;34.19;99587.41;5057564;28;20037;-71
2021/05/01 11:22:56;;;;;;;11.05;3.97;;;;;;;29.97;34.43;99589.84;5059426;28;20021;-75
2021/05/01 11:25:23;;;;;;;17.15;4.15;;;;;;;29.95;35.92;99572.94;5060429;28;20048;-70
2021/05/01 11:27:54;;;;;;;16.27;4.35;;;;;;;29.77;34.51;99577.28;5058866;28;20302;-75